Track Андреев Григорий

Time Latitude Longitude Accuracy (66% radius in meters) Altitude (meters) Speed (km/hour) Bearing (degrees) Battery (%) GPS flag
10:13:09 59.758207 30.271450 4 81.4 5.8000001907349 305.70001220703 6 1 delete
10:13:07 59.758145 30.271621 4 81.6 6 305.39999389648 6 1 delete
10:13:05 59.758080 30.271792 4 81.5 6.4000000953674 305 6 1 delete
10:13:03 59.758013 30.271982 4 81.7 7.9000000953674 304.70001220703 6 1 delete
10:13:01 59.757923 30.272234 4 81.6 12.10000038147 305 6 1 delete
10:13:00 59.757861 30.272410 4 81.9 12.699999809265 305.10000610352 6 1 delete
10:12:59 59.757793 30.272593 4 82 13.39999961853 305.20001220703 6 1 delete
10:12:58 59.757723 30.272791 4 81.9 14.199999809265 305.29998779297 6 1 delete
10:12:57 59.757651 30.272993 4 82 15 305 6 1 delete
10:12:56 59.757577 30.273209 4 81.9 15.699999809265 305 6 1 delete
10:12:55 59.757498 30.273438 4 81.8 15.800000190735 305.10000610352 6 1 delete
10:12:54 59.757417 30.273668 4 81.9 15.60000038147 305.29998779297 6 1 delete
10:12:53 59.757334 30.273894 4 81.9 15.300000190735 305.29998779297 6 1 delete
10:12:52 59.757254 30.274117 4 82 15.10000038147 305.29998779297 6 1 delete
10:12:51 59.757174 30.274335 4 82.3 14.5 305.20001220703 6 1 delete
10:12:50 59.757097 30.274547 4 82.2 14 305.10000610352 6 1 delete
10:12:49 59.757026 30.274748 4 82.3 13.300000190735 305.20001220703 6 1 delete
10:12:48 59.756957 30.274943 4 82.2 12.699999809265 305.5 6 1 delete
10:12:47 59.756890 30.275126 4 82.3 12.300000190735 305.79998779297 6 1 delete
10:12:46 59.756826 30.275300 4 82.2 12.60000038147 305.79998779297 6 1 delete
10:12:45 59.756760 30.275476 4 82.5 13.800000190735 305.5 6 1 delete
10:12:44 59.756693 30.275678 4 81.7 14.60000038147 305.29998779297 6 1 delete
10:12:43 59.756617 30.275882 4 81.7 17.799999237061 305 6 1 delete
10:12:42 59.756524 30.276140 4 81.5 19.700000762939 305.20001220703 6 1 delete
10:12:41 59.756425 30.276429 4 81.3 20.10000038147 305.10000610352 6 1 delete
10:12:40 59.756321 30.276721 4 81.1 20.299999237061 305.10000610352 6 1 delete
10:12:39 59.756216 30.277018 4 81 20.60000038147 305.10000610352 6 1 delete
10:12:38 59.756111 30.277314 4 80.9 20.799999237061 305 6 1 delete
10:12:37 59.756003 30.277621 4 80.6 20.799999237061 305.10000610352 6 1 delete
10:12:36 59.755896 30.277925 4 80.4 20.799999237061 305.10000610352 6 1 delete
10:12:35 59.755790 30.278228 4 80.1 20.799999237061 305.10000610352 6 1 delete
10:12:34 59.755681 30.278536 4 80 20.89999961853 305.20001220703 6 1 delete
10:12:33 59.755572 30.278847 4 79.6 21 305.29998779297 6 1 delete
10:12:32 59.755464 30.279147 4 79.3 21 305.39999389648 6 1 delete
10:12:31 59.755354 30.279456 4 79.1 21 305.60000610352 6 1 delete
10:12:30 59.755244 30.279764 4 78.9 20.89999961853 305.39999389648 6 1 delete
10:12:29 59.755135 30.280069 4 79 20.89999961853 305.39999389648 6 1 delete
10:12:28 59.755024 30.280379 4 79.1 21.10000038147 305.39999389648 6 1 delete
10:12:27 59.754914 30.280683 4 79 21.299999237061 305.20001220703 6 1 delete
10:12:26 59.754802 30.280986 4 78.2 21.60000038147 305.20001220703 6 1 delete
10:12:25 59.754689 30.281303 4 78.2 21.799999237061 305.20001220703 6 1 delete
10:12:24 59.754573 30.281623 4 78 22.10000038147 305.20001220703 6 1 delete
10:12:23 59.754462 30.281949 4 77.4 22 305.10000610352 6 1 delete
10:12:22 59.754352 30.282262 4 79.1 22.299999237061 306.10000610352 6 1 delete
10:12:21 59.754232 30.282581 4 78.1 22.799999237061 305.29998779297 6 1 delete
10:12:20 59.754114 30.282910 4 77.6 22.799999237061 305.20001220703 6 1 delete
10:12:19 59.753995 30.283240 4 77.5 22.799999237061 305 6 1 delete
10:12:18 59.753877 30.283576 4 77.6 22.799999237061 305 6 1 delete
10:12:17 59.753761 30.283908 4 77.6 22.799999237061 305 6 1 delete
10:12:16 59.753644 30.284243 4 77.5 22.700000762939 305.20001220703 6 1 delete